createdAt,value
2018-11-20T00:03:35.954Z,0.60
2018-11-20T00:13:42.250Z,0.50
2018-11-20T00:18:54.213Z,0.40
2018-11-20T00:23:58.780Z,0.40
2018-11-20T00:33:35.177Z,0.50
2018-11-20T00:43:36.421Z,0.60
2018-11-20T00:48:20.075Z,0.50
2018-11-20T00:53:41.469Z,0.50
2018-11-20T01:03:14.272Z,0.60
2018-11-20T01:07:59.496Z,0.60
2018-11-20T01:12:41.962Z,0.50
2018-11-20T01:17:25.508Z,0.50
2018-11-20T01:37:12.095Z,0.50
2018-11-20T01:42:16.740Z,0.50
2018-11-20T01:52:13.138Z,0.50
2018-11-20T01:57:31.735Z,0.50
2018-11-20T02:07:27.917Z,0.50
2018-11-20T02:12:10.488Z,0.60
2018-11-20T02:22:02.268Z,0.60
2018-11-20T02:36:53.834Z,0.60
2018-11-20T02:41:57.658Z,0.50
2018-11-20T02:51:58.986Z,0.50
2018-11-20T03:06:39.399Z,0.50
2018-11-20T03:16:13.040Z,0.50
2018-11-20T03:21:34.964Z,0.60
2018-11-20T03:31:30.784Z,0.70
2018-11-20T03:36:14.394Z,0.60
2018-11-20T03:55:32.024Z,0.60
2018-11-20T04:00:32.436Z,0.60
2018-11-20T04:05:39.098Z,0.60
2018-11-20T04:10:42.778Z,0.60
2018-11-20T04:20:35.437Z,0.60
2018-11-20T04:25:56.956Z,0.60
2018-11-20T04:31:39.377Z,0.60
2018-11-20T04:36:48.278Z,0.70
2018-11-20T04:41:50.177Z,0.70
2018-11-20T04:46:56.434Z,0.70
2018-11-20T04:51:58.392Z,0.70
2018-11-20T04:57:10.600Z,0.80
2018-11-20T05:02:19.918Z,0.70
2018-11-20T05:07:31.591Z,0.80
2018-11-20T05:12:38.951Z,0.80
2018-11-20T05:17:32.154Z,0.70
2018-11-20T05:22:34.281Z,0.70
2018-11-20T05:27:46.755Z,0.80
2018-11-20T05:32:56.049Z,0.80
2018-11-20T05:37:55.063Z,0.80
2018-11-20T05:48:04.968Z,0.80
2018-11-20T05:53:30.121Z,0.80
2018-11-20T05:58:28.650Z,0.70
2018-11-20T06:03:36.546Z,0.90
2018-11-20T06:08:38.671Z,0.90
2018-11-20T06:13:42.224Z,0.90
2018-11-20T06:18:44.103Z,0.90
2018-11-20T06:23:56.445Z,0.90
2018-11-20T06:28:51.545Z,0.90
2018-11-20T06:33:53.554Z,0.90
2018-11-20T06:39:12.133Z,0.90
2018-11-20T06:44:18.544Z,0.90
2018-11-20T06:49:22.083Z,0.90
2018-11-20T06:54:25.769Z,0.90
2018-11-20T06:59:37.815Z,0.90
2018-11-20T07:04:42.659Z,0.90
2018-11-20T07:09:46.531Z,0.90
2018-11-20T07:14:50.303Z,1.00
2018-11-20T07:20:11.099Z,1.00
2018-11-20T07:25:13.172Z,1.00
2018-11-20T07:30:18.647Z,1.00
2018-11-20T07:39:45.284Z,1.00
2018-11-20T07:44:30.249Z,1.10
2018-11-20T07:49:15.507Z,1.00
2018-11-20T08:04:01.486Z,1.10
2018-11-20T08:09:05.074Z,1.10
2018-11-20T08:14:11.626Z,1.10
2018-11-20T08:19:07.872Z,1.20
2018-11-20T08:24:09.791Z,1.10
2018-11-20T08:29:02.099Z,1.30
2018-11-20T08:38:46.294Z,1.40
2018-11-20T08:43:45.941Z,1.40
2018-11-20T08:48:48.065Z,1.60
2018-11-20T08:53:56.187Z,1.70
2018-11-20T08:59:18.054Z,1.60
2018-11-20T09:04:24.192Z,1.60
2018-11-20T09:09:29.636Z,1.60
2018-11-20T09:14:49.264Z,1.60
2018-11-20T09:20:10.702Z,1.60
2018-11-20T09:25:26.153Z,1.60
2018-11-20T09:30:29.713Z,1.60
2018-11-20T09:35:45.262Z,1.70
2018-11-20T09:41:06.454Z,1.70
2018-11-20T09:46:28.895Z,1.90
2018-11-20T09:51:28.827Z,1.90
2018-11-20T09:56:30.856Z,1.90
2018-11-20T10:01:49.365Z,2.00
2018-11-20T10:06:53.005Z,2.10
2018-11-20T10:11:56.487Z,2.20
2018-11-20T10:17:12.357Z,2.10
2018-11-20T10:22:24.974Z,2.20
2018-11-20T10:27:27.283Z,2.20
2018-11-20T10:32:42.575Z,2.20
2018-11-20T10:37:40.769Z,2.10
2018-11-20T10:42:42.603Z,2.00
2018-11-20T10:47:56.641Z,2.00
2018-11-20T10:53:11.965Z,1.90
2018-11-20T10:58:14.154Z,1.90
2018-11-20T11:03:18.647Z,1.90
2018-11-20T11:08:19.044Z,1.90
2018-11-20T11:13:28.476Z,1.80
2018-11-20T11:18:35.023Z,1.80
2018-11-20T11:23:36.695Z,1.90
2018-11-20T11:28:40.285Z,2.00
2018-11-20T11:33:58.722Z,2.10
2018-11-20T11:39:02.442Z,2.10
2018-11-20T11:44:21.078Z,2.10
2018-11-20T11:49:22.888Z,2.20
2018-11-20T11:54:22.467Z,2.20
2018-11-20T11:59:31.642Z,2.20
2018-11-20T12:04:24.994Z,2.20
2018-11-20T12:09:36.179Z,2.00
2018-11-20T12:14:35.110Z,2.00
2018-11-20T12:19:37.344Z,2.00
2018-11-20T12:24:59.322Z,2.10
2018-11-20T12:35:00.369Z,2.00
2018-11-20T12:40:02.253Z,1.90
2018-11-20T12:45:08.489Z,1.90
2018-11-20T12:50:30.280Z,1.90
2018-11-20T13:00:16.486Z,1.70
2018-11-20T13:05:35.327Z,1.90
2018-11-20T13:15:21.329Z,1.70
2018-11-20T13:20:25.850Z,1.60
2018-11-20T13:30:12.236Z,1.50
2018-11-20T13:44:57.255Z,1.20
2018-11-20T13:50:06.256Z,1.20
2018-11-20T13:55:15.664Z,1.20
2018-11-20T14:00:30.044Z,1.20
2018-11-20T14:05:51.275Z,1.10
2018-11-20T14:10:53.543Z,1.10
2018-11-20T14:15:54.160Z,0.90
2018-11-20T14:20:57.953Z,1.00
2018-11-20T14:26:13.509Z,1.00
2018-11-20T14:31:35.973Z,1.00
2018-11-20T14:36:31.883Z,1.10
2018-11-20T14:41:47.160Z,1.10
2018-11-20T14:47:08.900Z,1.10
2018-11-20T14:52:15.260Z,1.00
2018-11-20T14:57:17.160Z,1.00
2018-11-20T15:02:16.903Z,1.00
2018-11-20T15:07:26.408Z,0.80
2018-11-20T15:12:47.819Z,0.90
2018-11-20T15:17:49.597Z,0.90
2018-11-20T15:22:51.607Z,0.80
2018-11-20T15:27:54.010Z,0.80
2018-11-20T15:32:57.684Z,0.70
2018-11-20T15:38:00.299Z,0.70
2018-11-20T15:48:43.695Z,0.70
2018-11-20T15:53:47.343Z,0.60
2018-11-20T15:58:53.846Z,0.60
2018-11-20T16:04:03.749Z,0.60
2018-11-20T16:09:15.252Z,0.50
2018-11-20T16:14:20.915Z,0.50
2018-11-20T16:19:33.695Z,0.50
2018-11-20T16:24:37.431Z,0.60
2018-11-20T16:29:42.531Z,0.60
2018-11-20T16:39:47.028Z,0.80
2018-11-20T16:44:52.989Z,0.80
2018-11-20T16:49:55.197Z,0.80
2018-11-20T16:54:59.306Z,0.80
2018-11-20T17:00:09.345Z,0.90
2018-11-20T17:19:22.852Z,1.10
2018-11-20T17:39:02.654Z,1.00
2018-11-20T17:44:05.869Z,1.00
2018-11-20T17:49:27.716Z,0.90
2018-11-20T17:54:42.461Z,0.90
2018-11-20T17:59:35.105Z,0.90
2018-11-20T18:04:30.379Z,0.90
2018-11-20T18:09:32.379Z,0.90
2018-11-20T18:14:34.614Z,0.90
2018-11-20T18:19:38.140Z,0.80
2018-11-20T18:24:40.227Z,0.90
2018-11-20T18:29:48.926Z,0.90
2018-11-20T18:35:01.802Z,0.90
2018-11-20T18:40:10.377Z,0.90
2018-11-20T18:45:13.475Z,0.80
2018-11-20T18:50:15.554Z,0.60
2018-11-20T18:56:02.541Z,0.80
2018-11-20T19:01:01.884Z,0.70
2018-11-20T19:07:09.189Z,0.80
2018-11-20T19:12:21.568Z,0.90
2018-11-20T19:17:23.269Z,0.90
2018-11-20T19:22:30.967Z,1.00
2018-11-20T19:27:42.113Z,1.00
2018-11-20T19:33:11.827Z,1.00
2018-11-20T19:38:39.726Z,1.00
2018-11-20T19:49:02.108Z,1.10
2018-11-20T19:54:14.034Z,1.00
2018-11-20T19:59:23.993Z,1.10
2018-11-20T20:04:26.934Z,1.10
2018-11-20T20:09:30.839Z,1.10
2018-11-20T20:14:32.374Z,1.10
2018-11-20T20:19:44.555Z,1.10
2018-11-20T20:24:55.617Z,1.10
2018-11-20T20:30:05.246Z,1.10
2018-11-20T20:35:06.852Z,1.10
2018-11-20T20:40:10.900Z,1.30
2018-11-20T20:45:28.116Z,1.20
2018-11-20T20:50:28.055Z,1.10
2018-11-20T20:55:29.646Z,1.20
2018-11-20T21:00:53.409Z,1.30
2018-11-20T21:05:53.069Z,1.20
2018-11-20T21:11:06.123Z,1.20
2018-11-20T21:16:14.908Z,1.20
2018-11-20T21:21:17.267Z,1.10
2018-11-20T21:26:18.921Z,1.20
2018-11-20T21:31:30.511Z,1.10
2018-11-20T21:36:32.088Z,1.20
2018-11-20T21:41:37.661Z,1.10
2018-11-20T21:46:36.498Z,1.10
2018-11-20T21:51:38.032Z,1.00
2018-11-20T21:56:39.178Z,1.00
2018-11-20T22:01:40.483Z,0.90
2018-11-20T22:06:41.520Z,1.00
2018-11-20T22:11:44.844Z,0.90
2018-11-20T22:16:46.227Z,0.90
2018-11-20T22:22:07.238Z,0.80
2018-11-20T22:27:28.054Z,0.90
2018-11-20T22:32:30.885Z,0.90
2018-11-20T22:37:36.981Z,1.00
2018-11-20T22:42:45.641Z,0.90
2018-11-20T22:47:47.067Z,1.00
2018-11-20T22:52:59.733Z,1.00
2018-11-20T22:58:11.395Z,1.10
2018-11-20T23:03:15.341Z,1.10
2018-11-20T23:07:59.303Z,1.10
2018-11-20T23:12:43.143Z,1.00
2018-11-20T23:17:26.813Z,1.00
2018-11-20T23:22:10.531Z,1.00
2018-11-20T23:26:54.193Z,1.10
2018-11-20T23:31:38.298Z,1.10
2018-11-20T23:36:31.668Z,1.10
2018-11-20T23:41:15.354Z,1.10
2018-11-20T23:45:59.067Z,1.10
2018-11-20T23:50:42.698Z,1.00
2018-11-20T23:55:26.339Z,1.00
